Time;durP1;ratioP1;P1;durP2;ratioP2;P2;SDS_P1;SDS_P2;PMS_P1;PMS_P2;Temp;Humidity;BMP_temperature;BMP_pressure;BME280_temperature;BME280_humidity;BME280_pressure;Samples;Min_cycle;Max_cycle;Signal;HPM_P1;HPM_P2
2022/10/31 00:00:39;;;;;;;;;1.60;1.60;;;;;;;;5199717;28;8816;-76
2022/10/31 00:03:11;;;;;;;;;1.00;1.00;;;;;;;;5167944;28;8851;-76
2022/10/31 00:05:49;;;;;;;;;3.00;2.50;;;;;;;;5183894;28;8795;-76
2022/10/31 00:08:20;;;;;;;;;6.60;6.60;;;;;;;;5182333;28;11404;-75
2022/10/31 00:10:51;;;;;;;;;7.75;7.50;;;;;;;;5200470;28;8785;-75
2022/10/31 00:13:22;;;;;;;;;14.20;14.20;;;;;;;;5200125;28;11388;-75
2022/10/31 00:15:53;;;;;;;;;15.20;15.20;;;;;;;;5167773;28;8797;-76
2022/10/31 00:18:24;;;;;;;;;8.40;8.40;;;;;;;;5181396;28;8897;-75
2022/10/31 00:21:02;;;;;;;;;14.60;14.60;;;;;;;;5181418;28;8788;-76
2022/10/31 00:23:52;;;;;;;;;12.60;12.60;;;;;;;;5200089;28;8766;-76
2022/10/31 00:26:23;;;;;;;;;14.20;14.20;;;;;;;;5182731;28;8857;-77
2022/10/31 00:29:12;;;;;;;;;8.00;8.00;;;;;;;;5183599;28;8805;-76
2022/10/31 00:31:44;;;;;;;;;4.00;4.00;;;;;;;;5182637;28;8806;-76
2022/10/31 00:34:15;;;;;;;;;8.40;8.40;;;;;;;;5184148;28;8766;-75
2022/10/31 00:36:46;;;;;;;;;5.80;5.60;;;;;;;;5200217;28;8805;-75
2022/10/31 00:39:17;;;;;;;;;6.60;6.40;;;;;;;;5183888;28;8844;-76
2022/10/31 00:41:48;;;;;;;;;6.00;4.80;;;;;;;;5200045;28;8809;-76
2022/10/31 00:44:37;;;;;;;;;6.00;6.00;;;;;;;;5199298;28;8813;-77
2022/10/31 00:47:08;;;;;;;;;9.20;9.20;;;;;;;;5202912;28;8797;-72
2022/10/31 00:49:39;;;;;;;;;9.00;9.00;;;;;;;;5204868;28;8809;-72
2022/10/31 00:52:11;;;;;;;;;7.00;6.80;;;;;;;;5170976;28;8797;-72
2022/10/31 00:54:43;;;;;;;;;6.80;6.80;;;;;;;;5187222;28;8801;-72
2022/10/31 00:57:14;;;;;;;;;2.40;2.40;;;;;;;;5200916;28;8794;-72
2022/10/31 00:59:46;;;;;;;;;5.80;5.80;;;;;;;;5203607;28;8839;-73
2022/10/31 01:02:17;;;;;;;;;9.20;9.20;;;;;;;;5184878;28;9653;-72
2022/10/31 01:04:48;;;;;;;;;7.40;7.40;;;;;;;;5204579;28;8793;-72
2022/10/31 01:07:19;;;;;;;;;11.00;11.00;;;;;;;;5185104;28;8784;-72
2022/10/31 01:09:50;;;;;;;;;8.00;8.00;;;;;;;;5170627;28;8797;-73
2022/10/31 01:12:22;;;;;;;;;16.60;15.40;;;;;;;;5186946;28;8793;-73
2022/10/31 01:14:55;;;;;;;;;12.80;12.80;;;;;;;;5168389;28;8892;-72
2022/10/31 01:17:26;;;;;;;;;20.60;20.00;;;;;;;;5169410;28;8793;-72
2022/10/31 01:19:57;;;;;;;;;19.60;18.60;;;;;;;;5202998;28;8868;-72
2022/10/31 01:22:31;;;;;;;;;39.60;35.40;;;;;;;;5187261;28;8808;-72
2022/10/31 01:25:20;;;;;;;;;34.40;33.80;;;;;;;;5201509;28;9540;-73
2022/10/31 01:27:53;;;;;;;;;34.20;33.60;;;;;;;;5186531;28;9402;-72
2022/10/31 01:30:24;;;;;;;;;21.80;21.40;;;;;;;;5204145;28;8824;-72
2022/10/31 01:32:56;;;;;;;;;18.00;17.60;;;;;;;;5182082;28;8815;-72
2022/10/31 01:35:28;;;;;;;;;12.80;12.80;;;;;;;;5186724;28;9508;-71
2022/10/31 01:37:59;;;;;;;;;17.40;16.00;;;;;;;;5184265;28;8910;-72
2022/10/31 01:40:30;;;;;;;;;10.20;10.20;;;;;;;;5202581;28;8834;-72
2022/10/31 01:43:01;;;;;;;;;5.20;5.20;;;;;;;;5186700;28;8758;-72
2022/10/31 01:45:52;;;;;;;;;3.00;3.00;;;;;;;;5188218;28;8856;-72
2022/10/31 01:48:27;;;;;;;;;1.20;1.00;;;;;;;;5185117;28;9699;-72
2022/10/31 01:50:58;;;;;;;;;2.00;2.00;;;;;;;;5200437;28;8797;-74
2022/10/31 01:53:29;;;;;;;;;1.00;1.00;;;;;;;;5202595;28;9554;-73
2022/10/31 01:56:00;;;;;;;;;2.80;2.80;;;;;;;;5168194;28;8780;-77
2022/10/31 01:58:32;;;;;;;;;12.80;12.20;;;;;;;;5168562;28;8857;-75
2022/10/31 02:01:04;;;;;;;;;20.60;19.40;;;;;;;;5186193;28;8778;-77
2022/10/31 02:03:35;;;;;;;;;16.80;15.60;;;;;;;;5167096;28;8821;-77
2022/10/31 02:06:08;;;;;;;;;13.00;12.60;;;;;;;;5188125;28;8813;-75
2022/10/31 02:08:40;;;;;;;;;2.60;2.60;;;;;;;;5167917;28;8787;-75
2022/10/31 02:11:11;;;;;;;;;5.60;5.60;;;;;;;;5185976;28;8786;-76
2022/10/31 02:13:42;;;;;;;;;8.20;8.20;;;;;;;;5202483;28;8766;-76
2022/10/31 02:16:33;;;;;;;;;10.80;10.80;;;;;;;;5189807;28;8857;-75
2022/10/31 02:19:08;;;;;;;;;7.60;7.60;;;;;;;;5177724;28;8935;-75
2022/10/31 02:21:47;;;;;;;;;2.20;2.20;;;;;;;;5203511;28;8782;-75
2022/10/31 02:24:24;;;;;;;;;2.80;2.80;;;;;;;;5183588;28;8882;-74
2022/10/31 02:27:17;;;;;;;;;6.60;6.60;;;;;;;;5203196;28;8789;-74
2022/10/31 02:30:09;;;;;;;;;3.40;3.40;;;;;;;;5202136;28;8781;-75
2022/10/31 02:32:59;;;;;;;;;0.00;0.00;;;;;;;;5181692;28;8788;-76
2022/10/31 02:35:33;;;;;;;;;1.00;1.00;;;;;;;;5157696;28;8775;-76
2022/10/31 02:38:16;;;;;;;;;0.20;0.20;;;;;;;;5190134;28;8779;-76
2022/10/31 02:41:01;;;;;;;;;1.60;1.60;;;;;;;;5221325;28;9513;-78
2022/10/31 02:43:55;;;;;;;;;6.00;6.00;;;;;;;;5191882;28;8865;-77
2022/10/31 02:47:03;;;;;;;;;1.20;0.80;;;;;;;;5206899;28;9505;-78
2022/10/31 02:49:43;;;;;;;;;1.40;1.40;;;;;;;;5229790;28;8820;-74
2022/10/31 02:52:23;;;;;;;;;1.00;1.00;;;;;;;;5206443;28;8782;-75
2022/10/31 02:54:54;;;;;;;;;2.00;2.00;;;;;;;;5217350;28;8802;-72
2022/10/31 02:57:29;;;;;;;;;13.00;12.80;;;;;;;;5192331;28;8793;-74
2022/10/31 03:00:02;;;;;;;;;13.00;10.60;;;;;;;;5200544;28;9535;-73
2022/10/31 03:02:45;;;;;;;;;8.00;7.40;;;;;;;;5164705;28;8862;-74
2022/10/31 03:05:27;;;;;;;;;1.40;1.40;;;;;;;;5182141;28;8811;-74
2022/10/31 03:08:10;;;;;;;;;9.60;7.20;;;;;;;;5189432;28;8858;-74
2022/10/31 03:11:02;;;;;;;;;8.60;8.60;;;;;;;;5198260;28;8919;-76
2022/10/31 03:13:41;;;;;;;;;12.20;12.00;;;;;;;;5176642;28;9639;-74
2022/10/31 03:16:25;;;;;;;;;35.80;32.80;;;;;;;;5193690;28;8778;-74
2022/10/31 03:19:03;;;;;;;;;33.80;30.20;;;;;;;;5185136;28;8865;-76
2022/10/31 03:21:34;;;;;;;;;30.80;27.80;;;;;;;;5184588;28;9528;-74
2022/10/31 03:24:06;;;;;;;;;26.80;26.80;;;;;;;;5201691;28;8789;-75
2022/10/31 03:26:41;;;;;;;;;20.80;19.40;;;;;;;;5201800;28;8822;-76
2022/10/31 03:29:15;;;;;;;;;23.40;23.00;;;;;;;;5185049;28;8900;-77
2022/10/31 03:31:58;;;;;;;;;16.60;16.60;;;;;;;;5204186;28;9192;-77
2022/10/31 03:34:30;;;;;;;;;14.80;14.80;;;;;;;;5205384;28;8771;-78
2022/10/31 03:37:04;;;;;;;;;19.60;17.80;;;;;;;;5169323;28;8792;-76
2022/10/31 03:39:54;;;;;;;;;19.00;19.00;;;;;;;;5181356;28;8836;-76
2022/10/31 03:42:46;;;;;;;;;18.40;16.60;;;;;;;;5181426;28;8792;-77
2022/10/31 03:45:21;;;;;;;;;28.40;24.60;;;;;;;;5181099;28;8796;-76
2022/10/31 03:47:53;;;;;;;;;8.40;8.40;;;;;;;;5164867;28;8876;-76
2022/10/31 03:50:28;;;;;;;;;23.20;23.00;;;;;;;;5193458;28;8793;-76
2022/10/31 03:53:04;;;;;;;;;17.60;17.60;;;;;;;;5168842;28;8777;-76
2022/10/31 03:55:45;;;;;;;;;15.80;15.20;;;;;;;;5195187;28;8921;-75
2022/10/31 03:58:28;;;;;;;;;11.20;11.20;;;;;;;;5221751;28;8786;-75
2022/10/31 04:01:20;;;;;;;;;20.00;19.40;;;;;;;;5218079;28;8871;-78
2022/10/31 04:03:52;;;;;;;;;12.20;12.20;;;;;;;;5189112;28;8809;-72
2022/10/31 04:06:24;;;;;;;;;8.00;7.00;;;;;;;;5219829;28;8879;-73
2022/10/31 04:09:14;;;;;;;;;6.00;6.00;;;;;;;;5223381;28;9554;-73
2022/10/31 04:11:49;;;;;;;;;6.20;5.60;;;;;;;;5221818;27;8878;-73
2022/10/31 04:14:52;;;;;;;;;7.40;7.40;;;;;;;;5203327;28;8797;-76
2022/10/31 04:17:43;;;;;;;;;42.80;39.20;;;;;;;;5200236;28;8862;-77
2022/10/31 04:20:18;;;;;;;;;18.60;18.00;;;;;;;;5200648;28;8829;-76
2022/10/31 04:22:50;;;;;;;;;18.20;18.20;;;;;;;;5183609;28;8818;-70
2022/10/31 04:25:21;;;;;;;;;17.00;17.00;;;;;;;;5200943;28;9515;-77
2022/10/31 04:27:53;;;;;;;;;17.60;17.60;;;;;;;;5204228;28;8805;-72
2022/10/31 04:30:24;;;;;;;;;23.20;22.60;;;;;;;;5194832;28;8806;-71
2022/10/31 04:32:55;;;;;;;;;17.50;17.50;;;;;;;;5184543;28;8792;-72
2022/10/31 04:35:44;;;;;;;;;21.00;21.00;;;;;;;;5216890;28;11459;-71
2022/10/31 04:38:34;;;;;;;;;13.00;13.00;;;;;;;;5220079;28;8777;-72
2022/10/31 04:41:08;;;;;;;;;8.20;8.20;;;;;;;;5184825;28;9630;-74
2022/10/31 04:43:42;;;;;;;;;6.60;6.60;;;;;;;;5200690;28;8801;-70
2022/10/31 04:46:13;;;;;;;;;4.00;4.00;;;;;;;;5200076;28;8801;-70
2022/10/31 04:49:02;;;;;;;;;3.00;3.00;;;;;;;;5201919;28;8774;-71
2022/10/31 04:51:33;;;;;;;;;2.20;2.20;;;;;;;;5184311;28;8776;-71
2022/10/31 04:54:05;;;;;;;;;1.20;1.20;;;;;;;;5184415;28;8792;-70
2022/10/31 04:56:54;;;;;;;;;2.80;2.80;;;;;;;;5201827;28;8785;-70
2022/10/31 04:59:27;;;;;;;;;1.00;1.00;;;;;;;;5165936;28;8817;-70
2022/10/31 05:02:16;;;;;;;;;5.80;5.80;;;;;;;;5176992;28;8799;-70
2022/10/31 05:05:00;;;;;;;;;4.00;4.00;;;;;;;;5162034;28;8788;-71
2022/10/31 05:07:33;;;;;;;;;3.20;3.20;;;;;;;;5162426;28;8776;-69
2022/10/31 05:10:23;;;;;;;;;2.00;2.00;;;;;;;;5196519;28;8794;-70
2022/10/31 05:12:56;;;;;;;;;5.60;5.60;;;;;;;;5167896;28;9524;-69
2022/10/31 05:15:50;;;;;;;;;9.20;8.00;;;;;;;;5197639;28;8809;-70
2022/10/31 05:18:25;;;;;;;;;1.00;1.00;;;;;;;;5197502;28;8823;-73
2022/10/31 05:21:16;;;;;;;;;1.00;1.00;;;;;;;;5193131;28;9644;-77
2022/10/31 05:23:53;;;;;;;;;2.20;2.20;;;;;;;;5177494;28;8903;-73
2022/10/31 05:26:27;;;;;;;;;1.80;1.80;;;;;;;;5148238;28;8823;-75
2022/10/31 05:29:00;;;;;;;;;13.00;13.00;;;;;;;;5181484;28;8836;-76
2022/10/31 05:31:33;;;;;;;;;3.00;3.00;;;;;;;;5178907;28;8855;-77
2022/10/31 05:34:06;;;;;;;;;1.00;1.00;;;;;;;;5181760;28;8817;-77
2022/10/31 05:36:56;;;;;;;;;3.40;3.40;;;;;;;;5189712;28;8805;-76
2022/10/31 05:39:30;;;;;;;;;4.40;4.40;;;;;;;;5167882;28;8847;-75
2022/10/31 05:42:09;;;;;;;;;3.40;3.40;;;;;;;;5187142;28;8807;-75
2022/10/31 05:44:40;;;;;;;;;2.60;2.60;;;;;;;;5171792;28;8782;-76
2022/10/31 05:47:31;;;;;;;;;3.00;3.00;;;;;;;;5195139;28;9601;-77
2022/10/31 05:50:22;;;;;;;;;1.00;1.00;;;;;;;;5209775;28;8809;-76
2022/10/31 05:53:06;;;;;;;;;1.00;1.00;;;;;;;;5208721;28;8774;-78
2022/10/31 05:55:43;;;;;;;;;1.00;1.00;;;;;;;;5167442;28;8768;-76
2022/10/31 05:58:21;;;;;;;;;4.00;4.00;;;;;;;;5162076;28;8803;-77
2022/10/31 06:01:00;;;;;;;;;5.20;4.40;;;;;;;;5212587;28;8825;-80
2022/10/31 06:03:32;;;;;;;;;9.00;8.20;;;;;;;;5193826;28;8800;-75
2022/10/31 06:06:06;;;;;;;;;1.00;1.00;;;;;;;;5183080;28;8780;-77
2022/10/31 06:08:41;;;;;;;;;2.40;2.40;;;;;;;;5171108;28;8804;-77
2022/10/31 06:11:19;;;;;;;;;3.00;3.00;;;;;;;;5186617;28;8872;-78
2022/10/31 06:14:14;;;;;;;;;1.50;1.50;;;;;;;;5180485;28;8881;-76
2022/10/31 06:17:05;;;;;;;;;3.00;3.00;;;;;;;;5188978;28;8786;-78
2022/10/31 06:19:52;;;;;;;;;7.00;7.00;;;;;;;;5182343;28;8819;-78
2022/10/31 06:22:27;;;;;;;;;2.80;2.80;;;;;;;;5150541;28;8778;-77
2022/10/31 06:25:00;;;;;;;;;1.00;1.00;;;;;;;;5150201;28;8796;-77
2022/10/31 06:27:39;;;;;;;;;0.00;0.00;;;;;;;;5150981;28;8795;-77
2022/10/31 06:30:17;;;;;;;;;0.00;0.00;;;;;;;;5150910;28;8784;-77
2022/10/31 06:32:50;;;;;;;;;0.00;0.00;;;;;;;;5166590;28;8796;-77
2022/10/31 06:35:24;;;;;;;;;1.00;1.00;;;;;;;;5150488;28;8818;-77
2022/10/31 06:37:57;;;;;;;;;0.40;0.40;;;;;;;;5149891;28;8802;-76
2022/10/31 06:40:42;;;;;;;;;1.00;1.00;;;;;;;;5167402;28;8824;-75
2022/10/31 06:43:24;;;;;;;;;1.40;1.40;;;;;;;;5167614;28;9526;-78
2022/10/31 06:46:15;;;;;;;;;4.20;4.20;;;;;;;;5167950;28;8791;-78
2022/10/31 06:49:05;;;;;;;;;4.40;4.40;;;;;;;;5151900;28;8811;-76
2022/10/31 06:51:54;;;;;;;;;2.60;2.60;;;;;;;;5152173;28;8833;-77
2022/10/31 06:54:26;;;;;;;;;1.60;1.60;;;;;;;;5166103;28;8784;-71
2022/10/31 06:56:58;;;;;;;;;2.00;2.00;;;;;;;;5190214;28;8815;-75
2022/10/31 06:59:30;;;;;;;;;1.40;1.40;;;;;;;;5197927;28;8978;-70
2022/10/31 07:02:21;;;;;;;;;1.60;1.60;;;;;;;;5184657;28;8799;-70
2022/10/31 07:04:53;;;;;;;;;3.80;3.80;;;;;;;;5193419;28;8818;-69
2022/10/31 07:07:24;;;;;;;;;3.00;3.00;;;;;;;;5199288;28;8787;-71
2022/10/31 07:09:55;;;;;;;;;3.20;3.20;;;;;;;;5223742;28;8818;-71
2022/10/31 07:12:43;;;;;;;;;3.00;3.00;;;;;;;;5206558;28;8759;-71
2022/10/31 07:15:14;;;;;;;;;3.00;3.00;;;;;;;;5202550;28;8791;-70
2022/10/31 07:18:05;;;;;;;;;0.75;0.75;;;;;;;;5208231;28;8807;-72
2022/10/31 07:20:38;;;;;;;;;3.40;3.40;;;;;;;;5189730;28;8834;-70
2022/10/31 07:23:10;;;;;;;;;2.00;2.00;;;;;;;;5219145;28;8805;-71
2022/10/31 07:26:00;;;;;;;;;6.00;6.00;;;;;;;;5202780;28;8800;-70
2022/10/31 07:28:42;;;;;;;;;9.40;9.40;;;;;;;;5202478;28;8809;-78
2022/10/31 07:31:14;;;;;;;;;17.00;15.00;;;;;;;;5202521;28;8919;-71
2022/10/31 07:33:45;;;;;;;;;8.40;8.40;;;;;;;;5184403;28;8817;-71
2022/10/31 07:36:35;;;;;;;;;10.00;10.00;;;;;;;;5186030;28;8808;-72
2022/10/31 07:39:25;;;;;;;;;8.20;8.20;;;;;;;;5186065;28;8847;-72
2022/10/31 07:42:14;;;;;;;;;8.00;8.00;;;;;;;;5201873;28;8850;-70
2022/10/31 07:44:49;;;;;;;;;4.20;4.20;;;;;;;;5189201;28;8819;-71
2022/10/31 07:48:04;;;;;;;;;6.80;6.40;;;;;;;;5168010;28;8808;-72
2022/10/31 07:50:54;;;;;;;;;8.40;8.40;;;;;;;;5199524;28;8809;-71
2022/10/31 07:53:44;;;;;;;;;9.00;8.00;;;;;;;;5187107;28;8768;-71
2022/10/31 07:56:26;;;;;;;;;7.80;7.40;;;;;;;;5164377;28;8800;-71
2022/10/31 07:58:57;;;;;;;;;9.20;9.20;;;;;;;;5200008;28;9034;-72
2022/10/31 08:01:47;;;;;;;;;19.60;19.60;;;;;;;;5199593;28;8803;-72
2022/10/31 08:04:48;;;;;;;;;25.00;23.80;;;;;;;;5201637;28;8898;-71
2022/10/31 08:07:36;;;;;;;;;31.60;31.20;;;;;;;;5190577;28;8794;-71
2022/10/31 08:10:09;;;;;;;;;34.80;33.60;;;;;;;;5201197;28;8849;-71
2022/10/31 08:12:40;;;;;;;;;30.25;28.50;;;;;;;;5201070;28;8801;-72
2022/10/31 08:15:12;;;;;;;;;26.60;25.00;;;;;;;;5184466;28;8777;-71
2022/10/31 08:17:43;;;;;;;;;22.20;22.20;;;;;;;;5184590;28;8797;-71
2022/10/31 08:20:15;;;;;;;;;24.60;24.40;;;;;;;;5164103;28;8823;-72
2022/10/31 08:22:57;;;;;;;;;19.00;18.60;;;;;;;;5148479;28;8818;-72
2022/10/31 08:25:29;;;;;;;;;29.80;29.60;;;;;;;;5181652;28;8813;-71
2022/10/31 08:28:00;;;;;;;;;25.40;25.40;;;;;;;;5184441;28;8802;-70
2022/10/31 08:30:32;;;;;;;;;22.25;22.25;;;;;;;;5184351;28;9385;-71
2022/10/31 08:33:23;;;;;;;;;23.80;23.00;;;;;;;;5190626;28;8944;-71
2022/10/31 08:36:12;;;;;;;;;25.60;25.60;;;;;;;;5181428;28;8920;-71
2022/10/31 08:39:01;;;;;;;;;19.40;18.80;;;;;;;;5189457;28;8943;-71
2022/10/31 08:41:33;;;;;;;;;37.80;34.80;;;;;;;;5204618;28;9505;-72
2022/10/31 08:44:05;;;;;;;;;23.20;23.20;;;;;;;;5204684;28;8874;-71
2022/10/31 08:46:36;;;;;;;;;33.60;32.80;;;;;;;;5197664;28;8996;-71
2022/10/31 08:49:25;;;;;;;;;35.20;34.40;;;;;;;;5206888;28;8789;-71
2022/10/31 08:51:56;;;;;;;;;40.20;36.40;;;;;;;;5183747;28;8801;-72
2022/10/31 08:54:29;;;;;;;;;50.40;43.20;;;;;;;;5184088;28;8832;-71
2022/10/31 08:57:00;;;;;;;;;34.20;33.00;;;;;;;;5200485;28;8786;-72
2022/10/31 08:59:43;;;;;;;;;9.20;8.00;;;;;;;;5184131;28;8813;-72
2022/10/31 09:02:29;;;;;;;;;27.80;26.40;;;;;;;;5183775;28;8816;-72
2022/10/31 09:05:18;;;;;;;;;33.80;33.40;;;;;;;;5179821;28;8804;-72
2022/10/31 09:07:49;;;;;;;;;34.50;29.25;;;;;;;;5165021;28;8822;-72
2022/10/31 09:10:22;;;;;;;;;32.60;31.40;;;;;;;;5167177;28;11481;-72
2022/10/31 09:13:01;;;;;;;;;40.25;38.00;;;;;;;;5167103;28;8772;-72
2022/10/31 09:16:01;;;;;;;;;31.40;31.20;;;;;;;;5170077;28;12226;-71
2022/10/31 09:18:32;;;;;;;;;28.00;27.00;;;;;;;;5183446;28;8934;-72
2022/10/31 09:21:03;;;;;;;;;24.80;23.00;;;;;;;;5166878;28;8894;-73
2022/10/31 09:23:35;;;;;;;;;27.00;27.00;;;;;;;;5167197;28;8786;-72
2022/10/31 09:26:06;;;;;;;;;17.20;16.80;;;;;;;;5201302;27;8781;-72
2022/10/31 09:28:57;;;;;;;;;18.60;18.40;;;;;;;;5210390;28;8779;-72
2022/10/31 09:31:28;;;;;;;;;38.80;34.00;;;;;;;;5207756;28;8799;-72
2022/10/31 09:34:09;;;;;;;;;68.60;54.40;;;;;;;;5207584;28;8782;-73
2022/10/31 09:36:40;;;;;;;;;72.75;59.00;;;;;;;;5207541;28;8789;-71
2022/10/31 09:39:18;;;;;;;;;59.40;49.00;;;;;;;;5224302;28;8877;-70
2022/10/31 09:42:28;;;;;;;;;63.40;50.60;;;;;;;;5205458;28;8803;-70
2022/10/31 09:45:06;;;;;;;;;55.20;45.80;;;;;;;;5229257;28;8781;-71
2022/10/31 09:47:58;;;;;;;;;60.20;49.00;;;;;;;;5184879;28;8914;-72
2022/10/31 09:50:44;;;;;;;;;59.00;48.20;;;;;;;;5183071;28;8930;-71
2022/10/31 09:53:59;;;;;;;;;66.80;53.80;;;;;;;;5166744;28;8795;-70
2022/10/31 09:56:48;;;;;;;;;46.80;42.00;;;;;;;;5183942;28;8784;-71
2022/10/31 09:59:30;;;;;;;;;41.20;38.80;;;;;;;;5182636;28;8816;-70
2022/10/31 10:02:03;;;;;;;;;30.60;28.40;;;;;;;;5196896;28;8871;-70
2022/10/31 10:04:34;;;;;;;;;29.60;25.60;;;;;;;;5175652;28;8798;-69
2022/10/31 10:07:34;;;;;;;;;20.40;20.40;;;;;;;;5203838;28;9472;-69
2022/10/31 10:10:38;;;;;;;;;19.20;19.00;;;;;;;;5176529;28;8821;-69
2022/10/31 10:13:44;;;;;;;;;20.40;19.20;;;;;;;;5197129;28;8786;-70
2022/10/31 10:16:45;;;;;;;;;12.60;12.60;;;;;;;;5186733;28;8781;-70
2022/10/31 10:19:22;;;;;;;;;19.20;17.20;;;;;;;;5184807;28;8825;-70
2022/10/31 10:22:31;;;;;;;;;17.60;16.00;;;;;;;;5182188;28;8791;-70
2022/10/31 10:25:27;;;;;;;;;22.60;17.80;;;;;;;;5182218;28;8792;-70
2022/10/31 10:28:14;;;;;;;;;14.00;14.00;;;;;;;;5165569;28;8784;-68
2022/10/31 10:31:04;;;;;;;;;22.20;21.20;;;;;;;;5174468;28;8804;-70
2022/10/31 10:33:35;;;;;;;;;24.00;22.80;;;;;;;;5165916;28;8819;-70
2022/10/31 10:36:30;;;;;;;;;28.00;25.80;;;;;;;;5183451;28;8914;-70
2022/10/31 10:39:11;;;;;;;;;19.80;19.80;;;;;;;;5183526;28;8832;-70
2022/10/31 10:41:44;;;;;;;;;15.60;15.60;;;;;;;;5182045;28;8795;-70
2022/10/31 10:47:39;;;;;;;;;20.80;20.80;;;;;;;;5198643;28;8792;-70
2022/10/31 10:50:18;;;;;;;;;20.40;20.40;;;;;;;;5181796;28;8792;-70
2022/10/31 10:53:31;;;;;;;;;35.80;35.00;;;;;;;;5181684;28;9565;-71
2022/10/31 10:56:17;;;;;;;;;20.00;20.00;;;;;;;;5184035;28;8798;-69
2022/10/31 10:58:48;;;;;;;;;21.80;21.40;;;;;;;;5182760;28;8876;-69
2022/10/31 11:01:19;;;;;;;;;13.60;13.60;;;;;;;;5181620;28;8785;-70
2022/10/31 11:03:50;;;;;;;;;15.25;15.00;;;;;;;;5182853;28;8776;-70
2022/10/31 11:06:25;;;;;;;;;7.50;7.50;;;;;;;;5165547;28;8806;-70
2022/10/31 11:08:56;;;;;;;;;4.60;4.60;;;;;;;;5181582;28;12158;-70
2022/10/31 11:11:30;;;;;;;;;4.00;4.00;;;;;;;;5181590;28;8852;-70
2022/10/31 11:14:21;;;;;;;;;7.60;7.60;;;;;;;;5165520;28;8787;-69
2022/10/31 11:17:08;;;;;;;;;37.40;36.40;;;;;;;;5210444;28;8794;-69
2022/10/31 11:19:39;;;;;;;;;13.20;13.00;;;;;;;;5204235;28;8838;-69
2022/10/31 11:22:29;;;;;;;;;6.00;6.00;;;;;;;;5206484;28;8811;-69
2022/10/31 11:25:00;;;;;;;;;6.60;6.60;;;;;;;;5188033;28;8914;-69
2022/10/31 11:27:30;;;;;;;;;6.80;6.80;;;;;;;;5177021;28;8811;-69
2022/10/31 11:30:05;;;;;;;;;3.40;3.40;;;;;;;;5179274;28;9005;-70
2022/10/31 11:32:43;;;;;;;;;6.80;6.80;;;;;;;;5181063;28;8807;-70
2022/10/31 11:35:17;;;;;;;;;4.00;4.00;;;;;;;;5179807;28;8800;-70
2022/10/31 11:37:50;;;;;;;;;7.20;7.20;;;;;;;;5163223;28;8824;-69
2022/10/31 11:40:22;;;;;;;;;2.00;2.00;;;;;;;;5180307;28;8889;-70
2022/10/31 11:43:15;;;;;;;;;0.40;0.40;;;;;;;;5206686;28;8795;-70
2022/10/31 11:45:46;;;;;;;;;0.00;0.00;;;;;;;;5203654;28;8778;-70
2022/10/31 11:48:20;;;;;;;;;3.00;3.00;;;;;;;;5186286;28;8857;-70
2022/10/31 11:50:52;;;;;;;;;2.20;2.20;;;;;;;;5180488;28;9300;-70
2022/10/31 11:53:30;;;;;;;;;4.00;3.60;;;;;;;;5180106;28;8791;-69
2022/10/31 11:56:06;;;;;;;;;2.80;2.80;;;;;;;;5162785;28;8800;-70
2022/10/31 11:58:37;;;;;;;;;1.40;1.40;;;;;;;;5179352;28;8813;-67
2022/10/31 12:01:25;;;;;;;;;1.40;1.40;;;;;;;;5181185;28;9527;-70
2022/10/31 12:04:02;;;;;;;;;3.00;3.00;;;;;;;;5179084;28;9599;-69
2022/10/31 12:06:35;;;;;;;;;5.80;5.80;;;;;;;;5199809;28;9543;-70
2022/10/31 12:09:26;;;;;;;;;3.20;3.20;;;;;;;;5203542;28;8787;-69
2022/10/31 12:12:16;;;;;;;;;6.40;6.40;;;;;;;;5219787;28;8795;-69
2022/10/31 12:14:50;;;;;;;;;2.40;2.40;;;;;;;;5220050;28;8786;-69
2022/10/31 12:17:36;;;;;;;;;6.40;6.20;;;;;;;;5216334;28;8809;-69
2022/10/31 12:20:25;;;;;;;;;11.20;11.20;;;;;;;;5220521;28;8791;-70
2022/10/31 12:22:56;;;;;;;;;6.40;6.40;;;;;;;;5203216;28;8791;-70
2022/10/31 12:25:36;;;;;;;;;6.00;6.00;;;;;;;;5186865;28;8801;-69
2022/10/31 12:28:25;;;;;;;;;7.20;7.20;;;;;;;;5167299;28;11434;-70
2022/10/31 12:31:04;;;;;;;;;10.60;10.60;;;;;;;;5178887;28;8825;-72
2022/10/31 12:33:54;;;;;;;;;10.20;10.20;;;;;;;;5180223;28;8800;-71
2022/10/31 12:36:40;;;;;;;;;14.80;14.80;;;;;;;;5175802;28;8782;-70
2022/10/31 12:39:47;;;;;;;;;37.60;35.40;;;;;;;;5198500;28;8928;-69
2022/10/31 12:42:56;;;;;;;;;30.00;29.60;;;;;;;;5200322;28;9524;-69
2022/10/31 12:45:34;;;;;;;;;23.40;21.60;;;;;;;;5200514;28;8905;-70
2022/10/31 12:48:08;;;;;;;;;14.60;14.60;;;;;;;;5199318;28;8867;-70
2022/10/31 12:50:39;;;;;;;;;17.20;15.60;;;;;;;;5218076;28;8847;-69
2022/10/31 12:53:09;;;;;;;;;2.00;2.00;;;;;;;;5201382;28;8801;-69
2022/10/31 12:55:40;;;;;;;;;7.00;7.00;;;;;;;;5180809;28;8873;-71
2022/10/31 12:58:21;;;;;;;;;7.40;7.20;;;;;;;;5163558;28;8798;-70
2022/10/31 13:01:11;;;;;;;;;12.60;12.60;;;;;;;;5163840;28;8827;-71
2022/10/31 13:03:53;;;;;;;;;11.80;11.80;;;;;;;;5181329;28;8796;-70
2022/10/31 13:06:33;;;;;;;;;11.20;11.20;;;;;;;;5178803;28;9506;-71
2022/10/31 13:09:10;;;;;;;;;12.20;12.20;;;;;;;;5180043;28;8818;-70
2022/10/31 13:11:55;;;;;;;;;9.60;9.60;;;;;;;;5163762;28;8784;-71
2022/10/31 13:14:26;;;;;;;;;7.00;7.00;;;;;;;;5179799;28;8788;-71
2022/10/31 13:16:58;;;;;;;;;8.00;7.75;;;;;;;;5164097;28;8787;-72
2022/10/31 13:19:41;;;;;;;;;9.00;9.00;;;;;;;;5189896;28;11482;-71
2022/10/31 13:22:29;;;;;;;;;8.00;8.00;;;;;;;;5204409;28;9636;-72
2022/10/31 13:25:09;;;;;;;;;8.40;8.00;;;;;;;;5193742;28;8808;-71
2022/10/31 13:28:03;;;;;;;;;3.00;3.00;;;;;;;;5178498;28;8812;-71
2022/10/31 13:30:36;;;;;;;;;4.00;3.20;;;;;;;;5177982;28;8780;-71
2022/10/31 13:33:11;;;;;;;;;0.00;0.00;;;;;;;;5149378;28;8820;-70
2022/10/31 13:36:06;;;;;;;;;10.80;10.80;;;;;;;;5181145;28;8784;-70
2022/10/31 13:38:57;;;;;;;;;2.00;2.00;;;;;;;;5189883;28;8810;-71
2022/10/31 13:41:46;;;;;;;;;2.00;2.00;;;;;;;;5210207;28;8798;-70
2022/10/31 13:44:19;;;;;;;;;0.75;0.75;;;;;;;;5183881;28;8774;-72
2022/10/31 13:46:51;;;;;;;;;0.00;0.00;;;;;;;;5195704;28;8808;-71
2022/10/31 13:49:24;;;;;;;;;0.00;0.00;;;;;;;;5163029;28;8800;-71
2022/10/31 13:52:10;;;;;;;;;1.00;1.00;;;;;;;;5187538;28;8796;-71
2022/10/31 13:54:43;;;;;;;;;1.00;1.00;;;;;;;;5184322;28;9551;-71
2022/10/31 13:57:25;;;;;;;;;1.00;1.00;;;;;;;;5202900;28;8816;-71
2022/10/31 13:59:58;;;;;;;;;3.40;3.40;;;;;;;;5203119;28;8831;-70
2022/10/31 14:02:31;;;;;;;;;4.00;4.00;;;;;;;;5202587;28;8786;-71
2022/10/31 14:05:25;;;;;;;;;2.40;2.40;;;;;;;;5183610;28;8864;-72
2022/10/31 14:08:18;;;;;;;;;1.40;1.40;;;;;;;;5182498;28;8773;-71
2022/10/31 14:10:51;;;;;;;;;8.00;8.00;;;;;;;;5203562;28;9528;-71
2022/10/31 14:13:28;;;;;;;;;20.60;16.40;;;;;;;;5186033;28;8789;-71
2022/10/31 14:16:01;;;;;;;;;64.80;48.60;;;;;;;;5185904;28;8805;-71
2022/10/31 14:18:56;;;;;;;;;41.20;33.60;;;;;;;;5203749;28;8828;-71
2022/10/31 14:21:29;;;;;;;;;62.80;48.60;;;;;;;;5202785;28;9520;-71
2022/10/31 14:24:00;;;;;;;;;34.20;33.80;;;;;;;;5203541;28;8777;-71
2022/10/31 14:26:32;;;;;;;;;79.25;62.75;;;;;;;;5222988;28;8787;-71
2022/10/31 14:29:15;;;;;;;;;213.00;141.67;;;;;;;;5213242;28;8820;-71
2022/10/31 14:31:55;;;;;;;;;106.20;79.80;;;;;;;;5203319;28;9818;-71
2022/10/31 14:34:28;;;;;;;;;42.60;37.60;;;;;;;;5185614;28;8774;-70
2022/10/31 14:37:04;;;;;;;;;17.80;16.20;;;;;;;;5195357;28;8937;-72
2022/10/31 14:39:50;;;;;;;;;65.00;47.80;;;;;;;;5205386;28;8840;-71
2022/10/31 14:42:34;;;;;;;;;34.80;32.00;;;;;;;;5169518;28;8801;-71
2022/10/31 14:45:27;;;;;;;;;20.80;20.00;;;;;;;;5216394;28;8992;-71
2022/10/31 14:47:58;;;;;;;;;14.20;13.20;;;;;;;;5222231;28;8767;-72
2022/10/31 14:50:32;;;;;;;;;5.60;5.60;;;;;;;;5202802;28;8805;-71
2022/10/31 14:53:12;;;;;;;;;3.60;3.60;;;;;;;;5169525;28;8786;-73
2022/10/31 14:56:02;;;;;;;;;15.60;13.80;;;;;;;;5202134;28;9554;-71
2022/10/31 14:58:46;;;;;;;;;36.00;35.20;;;;;;;;5201436;28;8785;-71
2022/10/31 15:01:35;;;;;;;;;9.00;8.60;;;;;;;;5203247;28;8797;-71
2022/10/31 15:04:21;;;;;;;;;7.20;7.20;;;;;;;;5185399;28;9532;-71
2022/10/31 15:07:00;;;;;;;;;15.80;15.80;;;;;;;;5205034;28;8787;-71
2022/10/31 15:09:33;;;;;;;;;6.00;6.00;;;;;;;;5189795;28;8786;-70
2022/10/31 15:12:39;;;;;;;;;1.80;1.80;;;;;;;;5187471;28;8816;-70
2022/10/31 15:15:11;;;;;;;;;1.00;1.00;;;;;;;;5214971;28;9534;-72
2022/10/31 15:17:49;;;;;;;;;2.00;2.00;;;;;;;;5181117;28;8848;-70
2022/10/31 15:20:22;;;;;;;;;2.00;2.00;;;;;;;;5183106;28;8921;-70
2022/10/31 15:22:55;;;;;;;;;0.20;0.20;;;;;;;;5167153;28;8877;-69
2022/10/31 15:25:29;;;;;;;;;4.20;4.20;;;;;;;;5182952;28;8817;-70
2022/10/31 15:28:00;;;;;;;;;14.20;14.20;;;;;;;;5183645;28;8781;-69
2022/10/31 15:30:31;;;;;;;;;8.40;8.40;;;;;;;;5200239;28;9531;-70
2022/10/31 15:33:02;;;;;;;;;6.00;6.00;;;;;;;;5199667;28;8881;-70
2022/10/31 15:35:59;;;;;;;;;2.00;2.00;;;;;;;;5186159;28;8781;-71
2022/10/31 15:38:30;;;;;;;;;0.00;0.00;;;;;;;;5167679;28;8799;-71
2022/10/31 15:41:03;;;;;;;;;2.80;2.80;;;;;;;;5199442;28;8961;-73
2022/10/31 15:43:36;;;;;;;;;2.80;2.80;;;;;;;;5188562;28;8804;-73
2022/10/31 15:46:08;;;;;;;;;4.20;4.20;;;;;;;;5203474;28;8813;-71
2022/10/31 15:48:44;;;;;;;;;11.00;11.00;;;;;;;;5220172;28;8881;-71
2022/10/31 15:51:15;;;;;;;;;12.40;12.40;;;;;;;;5179167;28;8870;-72
2022/10/31 15:53:48;;;;;;;;;13.00;13.00;;;;;;;;5163104;28;8792;-71
2022/10/31 15:56:24;;;;;;;;;7.60;7.60;;;;;;;;5162635;28;9415;-71
2022/10/31 15:58:56;;;;;;;;;7.80;7.80;;;;;;;;5173351;28;8812;-68